sensor_id;sensor_type;location;lat;lon;timestamp;P1;durP1;ratioP1;P2;durP2;ratioP2
41817;SDS011;27493;51.730;5.294;2023-04-16T00:00:53;8.50;;;3.73;;
41817;SDS011;27493;51.730;5.294;2023-04-16T00:03:19;10.10;;;3.93;;
41817;SDS011;27493;51.730;5.294;2023-04-16T00:05:44;8.03;;;3.80;;
41817;SDS011;27493;51.730;5.294;2023-04-16T00:08:09;9.30;;;4.07;;
41817;SDS011;27493;51.730;5.294;2023-04-16T00:10:34;12.00;;;4.30;;
41817;SDS011;27493;51.730;5.294;2023-04-16T00:12:59;8.73;;;4.40;;
41817;SDS011;27493;51.730;5.294;2023-04-16T00:15:24;13.63;;;5.00;;
41817;SDS011;27493;51.730;5.294;2023-04-16T00:17:50;12.00;;;5.37;;
41817;SDS011;27493;51.730;5.294;2023-04-16T00:20:15;11.40;;;5.83;;
41817;SDS011;27493;51.730;5.294;2023-04-16T00:22:40;11.93;;;6.10;;
41817;SDS011;27493;51.730;5.294;2023-04-16T00:25:05;15.07;;;5.33;;
41817;SDS011;27493;51.730;5.294;2023-04-16T00:27:31;13.40;;;5.57;;
41817;SDS011;27493;51.730;5.294;2023-04-16T00:29:56;8.07;;;5.03;;
41817;SDS011;27493;51.730;5.294;2023-04-16T00:32:21;9.87;;;4.90;;
41817;SDS011;27493;51.730;5.294;2023-04-16T00:34:46;12.30;;;5.37;;
41817;SDS011;27493;51.730;5.294;2023-04-16T00:37:11;13.67;;;5.17;;
41817;SDS011;27493;51.730;5.294;2023-04-16T00:39:36;9.23;;;4.97;;
41817;SDS011;27493;51.730;5.294;2023-04-16T00:42:02;11.47;;;5.00;;
41817;SDS011;27493;51.730;5.294;2023-04-16T00:44:27;10.10;;;4.97;;
41817;SDS011;27493;51.730;5.294;2023-04-16T00:46:53;11.47;;;5.33;;
41817;SDS011;27493;51.730;5.294;2023-04-16T00:49:18;12.23;;;5.90;;
41817;SDS011;27493;51.730;5.294;2023-04-16T00:51:44;12.63;;;5.23;;
41817;SDS011;27493;51.730;5.294;2023-04-16T00:54:10;8.20;;;5.17;;
41817;SDS011;27493;51.730;5.294;2023-04-16T00:56:35;12.77;;;5.37;;
41817;SDS011;27493;51.730;5.294;2023-04-16T00:59:00;12.33;;;6.27;;
41817;SDS011;27493;51.730;5.294;2023-04-16T01:01:26;10.47;;;5.40;;
41817;SDS011;27493;51.730;5.294;2023-04-16T01:03:51;13.63;;;5.80;;
41817;SDS011;27493;51.730;5.294;2023-04-16T01:06:16;8.43;;;5.00;;
41817;SDS011;27493;51.730;5.294;2023-04-16T01:08:42;12.53;;;5.77;;
41817;SDS011;27493;51.730;5.294;2023-04-16T01:11:07;14.87;;;5.30;;
41817;SDS011;27493;51.730;5.294;2023-04-16T01:13:32;9.10;;;5.30;;
41817;SDS011;27493;51.730;5.294;2023-04-16T01:15:58;9.63;;;5.17;;
41817;SDS011;27493;51.730;5.294;2023-04-16T01:18:24;8.50;;;4.77;;
41817;SDS011;27493;51.730;5.294;2023-04-16T01:20:49;10.07;;;5.13;;
41817;SDS011;27493;51.730;5.294;2023-04-16T01:23:15;11.30;;;4.90;;
41817;SDS011;27493;51.730;5.294;2023-04-16T01:25:42;7.83;;;4.57;;
41817;SDS011;27493;51.730;5.294;2023-04-16T01:28:07;10.77;;;4.73;;
41817;SDS011;27493;51.730;5.294;2023-04-16T01:30:32;6.47;;;4.30;;
41817;SDS011;27493;51.730;5.294;2023-04-16T01:32:58;12.20;;;4.80;;
41817;SDS011;27493;51.730;5.294;2023-04-16T01:35:23;8.53;;;4.27;;
41817;SDS011;27493;51.730;5.294;2023-04-16T01:37:49;8.33;;;4.30;;
41817;SDS011;27493;51.730;5.294;2023-04-16T01:40:14;7.60;;;4.53;;
41817;SDS011;27493;51.730;5.294;2023-04-16T01:42:40;8.13;;;3.93;;
41817;SDS011;27493;51.730;5.294;2023-04-16T01:45:05;5.43;;;3.40;;
41817;SDS011;27493;51.730;5.294;2023-04-16T01:47:30;9.63;;;3.90;;
41817;SDS011;27493;51.730;5.294;2023-04-16T01:49:56;6.77;;;3.90;;
41817;SDS011;27493;51.730;5.294;2023-04-16T01:52:21;7.10;;;3.97;;
41817;SDS011;27493;51.730;5.294;2023-04-16T01:54:46;11.43;;;4.20;;
41817;SDS011;27493;51.730;5.294;2023-04-16T01:57:11;7.97;;;3.97;;
41817;SDS011;27493;51.730;5.294;2023-04-16T01:59:36;10.20;;;4.67;;
41817;SDS011;27493;51.730;5.294;2023-04-16T02:02:03;7.07;;;4.10;;
41817;SDS011;27493;51.730;5.294;2023-04-16T02:04:31;8.80;;;4.53;;
41817;SDS011;27493;51.730;5.294;2023-04-16T02:06:56;8.20;;;4.60;;
41817;SDS011;27493;51.730;5.294;2023-04-16T02:09:21;10.20;;;4.40;;
41817;SDS011;27493;51.730;5.294;2023-04-16T02:11:46;7.53;;;4.40;;
41817;SDS011;27493;51.730;5.294;2023-04-16T02:14:12;9.37;;;4.63;;
41817;SDS011;27493;51.730;5.294;2023-04-16T02:16:37;12.63;;;5.07;;
41817;SDS011;27493;51.730;5.294;2023-04-16T02:19:02;10.47;;;5.17;;
41817;SDS011;27493;51.730;5.294;2023-04-16T02:21:28;8.57;;;4.97;;
41817;SDS011;27493;51.730;5.294;2023-04-16T02:23:53;10.23;;;5.43;;
41817;SDS011;27493;51.730;5.294;2023-04-16T02:26:18;11.77;;;5.70;;
41817;SDS011;27493;51.730;5.294;2023-04-16T02:28:44;12.47;;;6.30;;
41817;SDS011;27493;51.730;5.294;2023-04-16T02:31:09;13.93;;;6.77;;
41817;SDS011;27493;51.730;5.294;2023-04-16T02:33:34;11.90;;;6.07;;
41817;SDS011;27493;51.730;5.294;2023-04-16T02:35:59;10.53;;;5.93;;
41817;SDS011;27493;51.730;5.294;2023-04-16T02:38:25;12.70;;;6.60;;
41817;SDS011;27493;51.730;5.294;2023-04-16T02:40:50;12.87;;;6.43;;
41817;SDS011;27493;51.730;5.294;2023-04-16T02:43:15;15.33;;;7.47;;
41817;SDS011;27493;51.730;5.294;2023-04-16T02:45:40;19.00;;;7.83;;
41817;SDS011;27493;51.730;5.294;2023-04-16T02:48:05;16.77;;;7.23;;
41817;SDS011;27493;51.730;5.294;2023-04-16T02:50:32;13.20;;;7.00;;
41817;SDS011;27493;51.730;5.294;2023-04-16T02:52:57;14.13;;;7.60;;
41817;SDS011;27493;51.730;5.294;2023-04-16T02:55:23;13.93;;;7.77;;
41817;SDS011;27493;51.730;5.294;2023-04-16T02:57:48;12.37;;;7.00;;
41817;SDS011;27493;51.730;5.294;2023-04-16T03:00:13;15.27;;;7.43;;
41817;SDS011;27493;51.730;5.294;2023-04-16T03:02:38;13.27;;;7.53;;
41817;SDS011;27493;51.730;5.294;2023-04-16T03:05:04;14.60;;;7.60;;
41817;SDS011;27493;51.730;5.294;2023-04-16T03:07:29;11.40;;;6.73;;
41817;SDS011;27493;51.730;5.294;2023-04-16T03:09:54;13.47;;;7.40;;
41817;SDS011;27493;51.730;5.294;2023-04-16T03:12:19;14.67;;;8.37;;
41817;SDS011;27493;51.730;5.294;2023-04-16T03:14:45;16.47;;;8.50;;
41817;SDS011;27493;51.730;5.294;2023-04-16T03:17:10;15.03;;;8.20;;
41817;SDS011;27493;51.730;5.294;2023-04-16T03:19:35;15.60;;;8.20;;
41817;SDS011;27493;51.730;5.294;2023-04-16T03:22:00;17.23;;;8.40;;
41817;SDS011;27493;51.730;5.294;2023-04-16T03:24:25;14.23;;;8.70;;
41817;SDS011;27493;51.730;5.294;2023-04-16T03:26:52;12.83;;;8.27;;
41817;SDS011;27493;51.730;5.294;2023-04-16T03:29:17;13.87;;;8.00;;
41817;SDS011;27493;51.730;5.294;2023-04-16T03:31:42;15.07;;;8.80;;
41817;SDS011;27493;51.730;5.294;2023-04-16T03:34:07;14.47;;;8.17;;
41817;SDS011;27493;51.730;5.294;2023-04-16T03:36:32;16.00;;;8.40;;
41817;SDS011;27493;51.730;5.294;2023-04-16T03:38:57;14.47;;;8.40;;
41817;SDS011;27493;51.730;5.294;2023-04-16T03:41:23;14.67;;;7.53;;
41817;SDS011;27493;51.730;5.294;2023-04-16T03:43:48;19.20;;;7.90;;
41817;SDS011;27493;51.730;5.294;2023-04-16T03:46:13;13.50;;;7.73;;
41817;SDS011;27493;51.730;5.294;2023-04-16T03:48:38;12.07;;;7.50;;
41817;SDS011;27493;51.730;5.294;2023-04-16T03:51:03;13.43;;;7.67;;
41817;SDS011;27493;51.730;5.294;2023-04-16T03:53:29;13.17;;;7.60;;
41817;SDS011;27493;51.730;5.294;2023-04-16T03:55:54;14.53;;;7.90;;
41817;SDS011;27493;51.730;5.294;2023-04-16T03:58:19;18.97;;;8.30;;
41817;SDS011;27493;51.730;5.294;2023-04-16T04:00:45;15.03;;;8.33;;
41817;SDS011;27493;51.730;5.294;2023-04-16T04:03:10;17.30;;;8.17;;
41817;SDS011;27493;51.730;5.294;2023-04-16T04:05:39;17.07;;;8.13;;
41817;SDS011;27493;51.730;5.294;2023-04-16T04:08:04;14.80;;;8.40;;
41817;SDS011;27493;51.730;5.294;2023-04-16T04:10:33;17.73;;;8.33;;
41817;SDS011;27493;51.730;5.294;2023-04-16T04:12:58;17.90;;;8.80;;
41817;SDS011;27493;51.730;5.294;2023-04-16T04:15:24;15.27;;;7.80;;
41817;SDS011;27493;51.730;5.294;2023-04-16T04:17:49;18.60;;;8.70;;
41817;SDS011;27493;51.730;5.294;2023-04-16T04:20:14;14.67;;;8.50;;
41817;SDS011;27493;51.730;5.294;2023-04-16T04:22:40;14.93;;;8.83;;
41817;SDS011;27493;51.730;5.294;2023-04-16T04:25:05;20.57;;;8.90;;
41817;SDS011;27493;51.730;5.294;2023-04-16T04:27:30;17.47;;;8.17;;
41817;SDS011;27493;51.730;5.294;2023-04-16T04:29:56;15.47;;;8.20;;
41817;SDS011;27493;51.730;5.294;2023-04-16T04:32:21;15.67;;;8.57;;
41817;SDS011;27493;51.730;5.294;2023-04-16T04:34:47;16.03;;;8.47;;
41817;SDS011;27493;51.730;5.294;2023-04-16T04:37:12;15.40;;;8.20;;
41817;SDS011;27493;51.730;5.294;2023-04-16T04:39:37;18.23;;;8.90;;
41817;SDS011;27493;51.730;5.294;2023-04-16T04:42:02;18.53;;;9.10;;
41817;SDS011;27493;51.730;5.294;2023-04-16T04:44:28;14.67;;;8.87;;
41817;SDS011;27493;51.730;5.294;2023-04-16T04:46:53;15.20;;;8.50;;
41817;SDS011;27493;51.730;5.294;2023-04-16T04:49:18;18.23;;;8.90;;
41817;SDS011;27493;51.730;5.294;2023-04-16T04:51:43;20.03;;;9.43;;
41817;SDS011;27493;51.730;5.294;2023-04-16T04:54:09;18.67;;;9.30;;
41817;SDS011;27493;51.730;5.294;2023-04-16T04:56:34;16.23;;;9.63;;
41817;SDS011;27493;51.730;5.294;2023-04-16T04:58:59;17.80;;;9.87;;
41817;SDS011;27493;51.730;5.294;2023-04-16T05:01:24;17.67;;;9.77;;
41817;SDS011;27493;51.730;5.294;2023-04-16T05:03:49;19.50;;;9.97;;
41817;SDS011;27493;51.730;5.294;2023-04-16T05:06:15;17.77;;;9.77;;
41817;SDS011;27493;51.730;5.294;2023-04-16T05:08:40;24.30;;;10.57;;
41817;SDS011;27493;51.730;5.294;2023-04-16T05:11:05;27.93;;;10.70;;
41817;SDS011;27493;51.730;5.294;2023-04-16T05:13:30;19.33;;;10.93;;
41817;SDS011;27493;51.730;5.294;2023-04-16T05:15:55;21.50;;;10.53;;
41817;SDS011;27493;51.730;5.294;2023-04-16T05:18:21;22.87;;;10.67;;
41817;SDS011;27493;51.730;5.294;2023-04-16T05:20:46;25.93;;;11.50;;
41817;SDS011;27493;51.730;5.294;2023-04-16T05:23:11;23.03;;;11.20;;
41817;SDS011;27493;51.730;5.294;2023-04-16T05:25:36;19.97;;;10.67;;
41817;SDS011;27493;51.730;5.294;2023-04-16T05:28:01;22.20;;;11.30;;
41817;SDS011;27493;51.730;5.294;2023-04-16T05:30:26;22.63;;;11.47;;
41817;SDS011;27493;51.730;5.294;2023-04-16T05:32:53;25.10;;;12.07;;
41817;SDS011;27493;51.730;5.294;2023-04-16T05:35:18;19.90;;;11.20;;
41817;SDS011;27493;51.730;5.294;2023-04-16T05:37:43;22.57;;;11.53;;
41817;SDS011;27493;51.730;5.294;2023-04-16T05:40:08;24.10;;;12.10;;
41817;SDS011;27493;51.730;5.294;2023-04-16T05:42:34;21.20;;;12.00;;
41817;SDS011;27493;51.730;5.294;2023-04-16T05:45:00;25.37;;;12.23;;
41817;SDS011;27493;51.730;5.294;2023-04-16T05:47:26;21.83;;;11.27;;
41817;SDS011;27493;51.730;5.294;2023-04-16T05:49:51;23.27;;;11.60;;
41817;SDS011;27493;51.730;5.294;2023-04-16T05:52:16;20.47;;;11.20;;
41817;SDS011;27493;51.730;5.294;2023-04-16T05:54:41;23.07;;;12.50;;
41817;SDS011;27493;51.730;5.294;2023-04-16T05:57:06;26.67;;;12.00;;
41817;SDS011;27493;51.730;5.294;2023-04-16T05:59:32;21.27;;;11.37;;
41817;SDS011;27493;51.730;5.294;2023-04-16T06:01:58;30.37;;;11.83;;
41817;SDS011;27493;51.730;5.294;2023-04-16T06:04:23;27.63;;;12.13;;
41817;SDS011;27493;51.730;5.294;2023-04-16T06:06:48;27.67;;;12.23;;
41817;SDS011;27493;51.730;5.294;2023-04-16T06:09:13;29.33;;;12.03;;
41817;SDS011;27493;51.730;5.294;2023-04-16T06:11:39;29.47;;;13.40;;
41817;SDS011;27493;51.730;5.294;2023-04-16T06:17:06;34.13;;;14.60;;
41817;SDS011;27493;51.730;5.294;2023-04-16T06:28:35;40.53;;;15.30;;
41817;SDS011;27493;51.730;5.294;2023-04-16T06:31:01;36.83;;;15.20;;
41817;SDS011;27493;51.730;5.294;2023-04-16T06:33:26;39.70;;;15.77;;
41817;SDS011;27493;51.730;5.294;2023-04-16T06:35:51;38.37;;;16.80;;
41817;SDS011;27493;51.730;5.294;2023-04-16T06:38:17;34.37;;;15.33;;
41817;SDS011;27493;51.730;5.294;2023-04-16T06:40:42;42.97;;;16.83;;
41817;SDS011;27493;51.730;5.294;2023-04-16T06:43:07;39.33;;;15.27;;
41817;SDS011;27493;51.730;5.294;2023-04-16T06:45:32;37.47;;;16.63;;
41817;SDS011;27493;51.730;5.294;2023-04-16T06:47:57;37.47;;;16.83;;
41817;SDS011;27493;51.730;5.294;2023-04-16T06:50:23;37.73;;;16.23;;
41817;SDS011;27493;51.730;5.294;2023-04-16T06:52:48;38.83;;;15.90;;
41817;SDS011;27493;51.730;5.294;2023-04-16T06:55:14;40.60;;;16.43;;
41817;SDS011;27493;51.730;5.294;2023-04-16T06:57:39;41.83;;;16.83;;
41817;SDS011;27493;51.730;5.294;2023-04-16T07:00:05;46.83;;;17.10;;
41817;SDS011;27493;51.730;5.294;2023-04-16T07:02:30;40.20;;;16.83;;
41817;SDS011;27493;51.730;5.294;2023-04-16T07:04:55;46.27;;;17.23;;
41817;SDS011;27493;51.730;5.294;2023-04-16T07:07:20;40.57;;;17.47;;
41817;SDS011;27493;51.730;5.294;2023-04-16T07:09:46;44.97;;;17.73;;
41817;SDS011;27493;51.730;5.294;2023-04-16T07:12:11;43.83;;;16.57;;
41817;SDS011;27493;51.730;5.294;2023-04-16T07:14:36;47.33;;;16.60;;
41817;SDS011;27493;51.730;5.294;2023-04-16T07:17:01;36.83;;;16.30;;
41817;SDS011;27493;51.730;5.294;2023-04-16T07:19:26;43.57;;;17.00;;
41817;SDS011;27493;51.730;5.294;2023-04-16T07:21:54;45.87;;;18.30;;
41817;SDS011;27493;51.730;5.294;2023-04-16T07:24:19;45.50;;;17.97;;
41817;SDS011;27493;51.730;5.294;2023-04-16T07:26:44;41.90;;;17.30;;
41817;SDS011;27493;51.730;5.294;2023-04-16T07:29:10;40.50;;;16.50;;
41817;SDS011;27493;51.730;5.294;2023-04-16T07:31:35;43.77;;;17.87;;
41817;SDS011;27493;51.730;5.294;2023-04-16T07:34:00;37.70;;;16.77;;
41817;SDS011;27493;51.730;5.294;2023-04-16T07:36:25;39.90;;;16.00;;
41817;SDS011;27493;51.730;5.294;2023-04-16T07:38:52;37.37;;;16.00;;
41817;SDS011;27493;51.730;5.294;2023-04-16T07:41:17;39.87;;;15.57;;
41817;SDS011;27493;51.730;5.294;2023-04-16T07:43:42;41.80;;;17.13;;
41817;SDS011;27493;51.730;5.294;2023-04-16T07:46:07;36.77;;;16.70;;
41817;SDS011;27493;51.730;5.294;2023-04-16T07:48:32;35.63;;;16.40;;
41817;SDS011;27493;51.730;5.294;2023-04-16T07:50:58;41.07;;;15.30;;
41817;SDS011;27493;51.730;5.294;2023-04-16T07:53:23;28.83;;;15.47;;
41817;SDS011;27493;51.730;5.294;2023-04-16T07:55:48;35.30;;;15.90;;
41817;SDS011;27493;51.730;5.294;2023-04-16T07:58:13;36.13;;;16.80;;
41817;SDS011;27493;51.730;5.294;2023-04-16T08:00:38;40.20;;;16.43;;
41817;SDS011;27493;51.730;5.294;2023-04-16T08:03:03;32.47;;;15.40;;
41817;SDS011;27493;51.730;5.294;2023-04-16T08:05:29;35.23;;;15.80;;
41817;SDS011;27493;51.730;5.294;2023-04-16T08:07:54;33.93;;;14.97;;
41817;SDS011;27493;51.730;5.294;2023-04-16T08:10:19;38.30;;;15.60;;
41817;SDS011;27493;51.730;5.294;2023-04-16T08:12:44;32.93;;;14.47;;
41817;SDS011;27493;51.730;5.294;2023-04-16T08:15:10;28.63;;;14.80;;
41817;SDS011;27493;51.730;5.294;2023-04-16T08:17:35;31.27;;;14.07;;
41817;SDS011;27493;51.730;5.294;2023-04-16T08:20:01;28.07;;;13.87;;
41817;SDS011;27493;51.730;5.294;2023-04-16T08:22:26;26.77;;;14.03;;
41817;SDS011;27493;51.730;5.294;2023-04-16T08:24:51;32.57;;;13.93;;
41817;SDS011;27493;51.730;5.294;2023-04-16T08:27:17;30.10;;;14.77;;
41817;SDS011;27493;51.730;5.294;2023-04-16T08:29:42;27.43;;;13.80;;
41817;SDS011;27493;51.730;5.294;2023-04-16T08:32:07;29.23;;;14.50;;
41817;SDS011;27493;51.730;5.294;2023-04-16T08:34:34;32.80;;;14.57;;
41817;SDS011;27493;51.730;5.294;2023-04-16T08:36:59;26.83;;;14.00;;
41817;SDS011;27493;51.730;5.294;2023-04-16T08:39:24;28.87;;;14.80;;
41817;SDS011;27493;51.730;5.294;2023-04-16T08:41:49;31.40;;;14.10;;
41817;SDS011;27493;51.730;5.294;2023-04-16T08:44:20;28.17;;;14.93;;
41817;SDS011;27493;51.730;5.294;2023-04-16T08:46:48;28.97;;;15.03;;
41817;SDS011;27493;51.730;5.294;2023-04-16T08:49:16;29.00;;;13.57;;
41817;SDS011;27493;51.730;5.294;2023-04-16T08:51:44;31.00;;;13.50;;
41817;SDS011;27493;51.730;5.294;2023-04-16T08:54:13;31.20;;;14.63;;
41817;SDS011;27493;51.730;5.294;2023-04-16T08:56:38;31.73;;;14.23;;
41817;SDS011;27493;51.730;5.294;2023-04-16T08:59:05;29.33;;;14.23;;
41817;SDS011;27493;51.730;5.294;2023-04-16T09:01:31;25.93;;;14.57;;
41817;SDS011;27493;51.730;5.294;2023-04-16T09:03:56;27.57;;;14.00;;
41817;SDS011;27493;51.730;5.294;2023-04-16T09:06:22;28.33;;;13.93;;
41817;SDS011;27493;51.730;5.294;2023-04-16T09:08:48;27.40;;;14.33;;
41817;SDS011;27493;51.730;5.294;2023-04-16T09:11:13;30.27;;;14.47;;
41817;SDS011;27493;51.730;5.294;2023-04-16T09:13:41;27.40;;;13.80;;
41817;SDS011;27493;51.730;5.294;2023-04-16T09:16:06;27.27;;;14.00;;
41817;SDS011;27493;51.730;5.294;2023-04-16T09:18:32;27.30;;;14.40;;
41817;SDS011;27493;51.730;5.294;2023-04-16T09:20:57;25.03;;;13.63;;
41817;SDS011;27493;51.730;5.294;2023-04-16T09:23:22;26.67;;;14.17;;
41817;SDS011;27493;51.730;5.294;2023-04-16T09:25:49;28.33;;;13.90;;
41817;SDS011;27493;51.730;5.294;2023-04-16T09:28:37;23.10;;;13.63;;
41817;SDS011;27493;51.730;5.294;2023-04-16T09:31:09;26.47;;;14.57;;
41817;SDS011;27493;51.730;5.294;2023-04-16T09:33:35;28.90;;;14.87;;
41817;SDS011;27493;51.730;5.294;2023-04-16T09:36:00;27.47;;;14.73;;
41817;SDS011;27493;51.730;5.294;2023-04-16T09:38:25;27.10;;;14.00;;
41817;SDS011;27493;51.730;5.294;2023-04-16T09:41:04;28.13;;;14.40;;
41817;SDS011;27493;51.730;5.294;2023-04-16T09:43:30;29.90;;;13.57;;
41817;SDS011;27493;51.730;5.294;2023-04-16T09:45:55;29.10;;;14.73;;
41817;SDS011;27493;51.730;5.294;2023-04-16T09:48:28;25.53;;;13.87;;
41817;SDS011;27493;51.730;5.294;2023-04-16T09:53:55;22.50;;;13.67;;
41817;SDS011;27493;51.730;5.294;2023-04-16T09:59:23;22.73;;;12.93;;
41817;SDS011;27493;51.730;5.294;2023-04-16T10:04:52;25.27;;;13.37;;
41817;SDS011;27493;51.730;5.294;2023-04-16T10:07:18;24.77;;;14.20;;
41817;SDS011;27493;51.730;5.294;2023-04-16T10:09:43;23.53;;;13.97;;
41817;SDS011;27493;51.730;5.294;2023-04-16T10:12:08;23.97;;;13.63;;
41817;SDS011;27493;51.730;5.294;2023-04-16T10:14:34;20.73;;;13.73;;
41817;SDS011;27493;51.730;5.294;2023-04-16T10:16:59;21.63;;;12.37;;
41817;SDS011;27493;51.730;5.294;2023-04-16T10:19:26;21.40;;;13.33;;
41817;SDS011;27493;51.730;5.294;2023-04-16T10:21:51;24.87;;;13.33;;
41817;SDS011;27493;51.730;5.294;2023-04-16T10:24:17;22.70;;;13.20;;
41817;SDS011;27493;51.730;5.294;2023-04-16T10:26:42;20.23;;;12.20;;
41817;SDS011;27493;51.730;5.294;2023-04-16T10:29:08;22.80;;;12.70;;
41817;SDS011;27493;51.730;5.294;2023-04-16T10:40:38;20.87;;;12.67;;
41817;SDS011;27493;51.730;5.294;2023-04-16T10:43:08;21.27;;;12.43;;
41817;SDS011;27493;51.730;5.294;2023-04-16T10:45:40;19.93;;;12.10;;
41817;SDS011;27493;51.730;5.294;2023-04-16T10:48:06;19.40;;;11.97;;
41817;SDS011;27493;51.730;5.294;2023-04-16T10:50:35;17.80;;;11.63;;
41817;SDS011;27493;51.730;5.294;2023-04-16T10:53:21;15.37;;;11.80;;
41817;SDS011;27493;51.730;5.294;2023-04-16T10:56:30;19.37;;;11.67;;
41817;SDS011;27493;51.730;5.294;2023-04-16T10:58:36;17.93;;;11.80;;
41817;SDS011;27493;51.730;5.294;2023-04-16T11:01:11;16.70;;;10.73;;
41817;SDS011;27493;51.730;5.294;2023-04-16T11:03:45;20.43;;;11.97;;
41817;SDS011;27493;51.730;5.294;2023-04-16T11:06:14;19.70;;;10.90;;
41817;SDS011;27493;51.730;5.294;2023-04-16T11:08:41;17.27;;;10.87;;
41817;SDS011;27493;51.730;5.294;2023-04-16T11:11:08;18.67;;;11.53;;
41817;SDS011;27493;51.730;5.294;2023-04-16T11:13:33;18.47;;;11.03;;
41817;SDS011;27493;51.730;5.294;2023-04-16T11:16:00;21.67;;;12.07;;
41817;SDS011;27493;51.730;5.294;2023-04-16T11:18:25;19.20;;;10.60;;
41817;SDS011;27493;51.730;5.294;2023-04-16T11:20:51;14.13;;;9.83;;
41817;SDS011;27493;51.730;5.294;2023-04-16T11:23:16;15.43;;;10.73;;
41817;SDS011;27493;51.730;5.294;2023-04-16T11:25:41;17.37;;;10.30;;
41817;SDS011;27493;51.730;5.294;2023-04-16T11:28:07;15.57;;;10.63;;
41817;SDS011;27493;51.730;5.294;2023-04-16T11:30:35;19.30;;;10.37;;
41817;SDS011;27493;51.730;5.294;2023-04-16T11:33:01;17.67;;;9.83;;
41817;SDS011;27493;51.730;5.294;2023-04-16T11:35:27;15.83;;;10.17;;
41817;SDS011;27493;51.730;5.294;2023-04-16T11:37:55;13.83;;;9.37;;
41817;SDS011;27493;51.730;5.294;2023-04-16T11:40:21;14.87;;;9.27;;
41817;SDS011;27493;51.730;5.294;2023-04-16T11:42:46;18.13;;;9.60;;
41817;SDS011;27493;51.730;5.294;2023-04-16T11:45:11;18.43;;;9.90;;
41817;SDS011;27493;51.730;5.294;2023-04-16T11:47:47;13.50;;;9.30;;
41817;SDS011;27493;51.730;5.294;2023-04-16T11:50:19;16.53;;;10.03;;
41817;SDS011;27493;51.730;5.294;2023-04-16T11:52:45;13.90;;;9.43;;
41817;SDS011;27493;51.730;5.294;2023-04-16T11:55:11;16.87;;;9.10;;
41817;SDS011;27493;51.730;5.294;2023-04-16T11:57:36;10.50;;;8.60;;
41817;SDS011;27493;51.730;5.294;2023-04-16T12:00:02;13.67;;;8.80;;
41817;SDS011;27493;51.730;5.294;2023-04-16T12:02:33;11.83;;;8.67;;
41817;SDS011;27493;51.730;5.294;2023-04-16T12:04:58;13.70;;;8.50;;
41817;SDS011;27493;51.730;5.294;2023-04-16T12:07:24;14.00;;;8.63;;
41817;SDS011;27493;51.730;5.294;2023-04-16T12:09:49;15.03;;;9.67;;
41817;SDS011;27493;51.730;5.294;2023-04-16T12:12:27;15.47;;;8.60;;
41817;SDS011;27493;51.730;5.294;2023-04-16T12:14:54;13.63;;;8.87;;
41817;SDS011;27493;51.730;5.294;2023-04-16T12:17:20;12.80;;;8.53;;
41817;SDS011;27493;51.730;5.294;2023-04-16T12:19:49;18.20;;;10.10;;
41817;SDS011;27493;51.730;5.294;2023-04-16T12:22:16;13.40;;;9.47;;
41817;SDS011;27493;51.730;5.294;2023-04-16T12:24:41;15.43;;;9.27;;
41817;SDS011;27493;51.730;5.294;2023-04-16T12:27:06;12.97;;;8.93;;
41817;SDS011;27493;51.730;5.294;2023-04-16T12:29:32;11.43;;;8.80;;
41817;SDS011;27493;51.730;5.294;2023-04-16T12:31:58;12.67;;;8.80;;
41817;SDS011;27493;51.730;5.294;2023-04-16T12:34:23;12.00;;;8.63;;
41817;SDS011;27493;51.730;5.294;2023-04-16T12:36:48;12.27;;;9.23;;
41817;SDS011;27493;51.730;5.294;2023-04-16T12:39:26;12.70;;;8.67;;
41817;SDS011;27493;51.730;5.294;2023-04-16T12:41:51;13.90;;;8.87;;
41817;SDS011;27493;51.730;5.294;2023-04-16T12:44:17;11.70;;;9.17;;
41817;SDS011;27493;51.730;5.294;2023-04-16T12:46:42;15.87;;;10.27;;
41817;SDS011;27493;51.730;5.294;2023-04-16T12:49:08;13.77;;;9.53;;
41817;SDS011;27493;51.730;5.294;2023-04-16T12:51:34;15.50;;;10.40;;
41817;SDS011;27493;51.730;5.294;2023-04-16T12:54:00;16.40;;;10.40;;
41817;SDS011;27493;51.730;5.294;2023-04-16T12:56:25;18.10;;;10.80;;
41817;SDS011;27493;51.730;5.294;2023-04-16T12:58:51;18.57;;;10.40;;
41817;SDS011;27493;51.730;5.294;2023-04-16T13:01:17;20.07;;;10.20;;
41817;SDS011;27493;51.730;5.294;2023-04-16T13:03:42;21.67;;;10.17;;
41817;SDS011;27493;51.730;5.294;2023-04-16T13:06:07;15.63;;;10.40;;
41817;SDS011;27493;51.730;5.294;2023-04-16T13:08:33;18.20;;;11.10;;
41817;SDS011;27493;51.730;5.294;2023-04-16T13:10:58;15.83;;;10.87;;
41817;SDS011;27493;51.730;5.294;2023-04-16T13:13:23;18.37;;;10.83;;
41817;SDS011;27493;51.730;5.294;2023-04-16T13:15:48;19.23;;;10.67;;
41817;SDS011;27493;51.730;5.294;2023-04-16T13:18:13;17.03;;;10.80;;
41817;SDS011;27493;51.730;5.294;2023-04-16T13:20:39;18.47;;;10.63;;
41817;SDS011;27493;51.730;5.294;2023-04-16T13:23:05;20.73;;;10.63;;
41817;SDS011;27493;51.730;5.294;2023-04-16T13:25:30;19.77;;;10.53;;
41817;SDS011;27493;51.730;5.294;2023-04-16T13:27:56;17.23;;;10.73;;
41817;SDS011;27493;51.730;5.294;2023-04-16T13:30:21;16.33;;;10.67;;
41817;SDS011;27493;51.730;5.294;2023-04-16T13:32:46;19.47;;;11.80;;
41817;SDS011;27493;51.730;5.294;2023-04-16T13:35:11;20.67;;;11.63;;
41817;SDS011;27493;51.730;5.294;2023-04-16T13:37:37;20.27;;;12.37;;
41817;SDS011;27493;51.730;5.294;2023-04-16T13:40:02;20.60;;;12.53;;
41817;SDS011;27493;51.730;5.294;2023-04-16T13:42:27;21.37;;;11.93;;
41817;SDS011;27493;51.730;5.294;2023-04-16T13:44:52;20.77;;;11.77;;
41817;SDS011;27493;51.730;5.294;2023-04-16T13:47:19;19.93;;;12.43;;
41817;SDS011;27493;51.730;5.294;2023-04-16T13:49:44;19.47;;;11.80;;
41817;SDS011;27493;51.730;5.294;2023-04-16T13:52:09;19.00;;;11.37;;
41817;SDS011;27493;51.730;5.294;2023-04-16T13:54:35;22.20;;;12.07;;
41817;SDS011;27493;51.730;5.294;2023-04-16T13:57:00;19.53;;;12.13;;
41817;SDS011;27493;51.730;5.294;2023-04-16T13:59:25;18.47;;;11.77;;
41817;SDS011;27493;51.730;5.294;2023-04-16T14:01:50;19.57;;;11.83;;
41817;SDS011;27493;51.730;5.294;2023-04-16T14:04:15;19.47;;;11.87;;
41817;SDS011;27493;51.730;5.294;2023-04-16T14:06:41;21.43;;;11.90;;
41817;SDS011;27493;51.730;5.294;2023-04-16T14:09:06;25.63;;;12.57;;
41817;SDS011;27493;51.730;5.294;2023-04-16T14:11:33;20.93;;;12.47;;
41817;SDS011;27493;51.730;5.294;2023-04-16T14:13:58;24.07;;;12.57;;
41817;SDS011;27493;51.730;5.294;2023-04-16T14:16:23;25.30;;;13.23;;
41817;SDS011;27493;51.730;5.294;2023-04-16T14:18:48;22.20;;;13.00;;
41817;SDS011;27493;51.730;5.294;2023-04-16T14:21:15;20.13;;;13.07;;
41817;SDS011;27493;51.730;5.294;2023-04-16T14:23:40;22.67;;;12.90;;
41817;SDS011;27493;51.730;5.294;2023-04-16T14:26:06;24.20;;;13.30;;
41817;SDS011;27493;51.730;5.294;2023-04-16T14:28:31;20.53;;;12.60;;
41817;SDS011;27493;51.730;5.294;2023-04-16T14:30:56;23.27;;;12.90;;
41817;SDS011;27493;51.730;5.294;2023-04-16T14:33:21;21.60;;;13.03;;
41817;SDS011;27493;51.730;5.294;2023-04-16T14:35:47;20.30;;;12.97;;
41817;SDS011;27493;51.730;5.294;2023-04-16T14:38:14;27.43;;;13.50;;
41817;SDS011;27493;51.730;5.294;2023-04-16T14:40:39;22.57;;;13.37;;
41817;SDS011;27493;51.730;5.294;2023-04-16T14:43:05;21.90;;;13.33;;
41817;SDS011;27493;51.730;5.294;2023-04-16T14:45:31;22.60;;;13.23;;
41817;SDS011;27493;51.730;5.294;2023-04-16T14:47:56;26.13;;;13.90;;
41817;SDS011;27493;51.730;5.294;2023-04-16T14:50:21;23.77;;;13.67;;